Time;durP1;ratioP1;P1;durP2;ratioP2;P2;SDS_P1;SDS_P2;PMS_P1;PMS_P2;Temp;Humidity;BMP_temperature;BMP_pressure;BME280_temperature;BME280_humidity;BME280_pressure;Samples;Min_cycle;Max_cycle;Signal;HPM_P1;HPM_P2
2024/01/10 00:01:35;;;;;;;111.82;58.53;;;-4.00;99.90;;;;;;5022263;28;20030;-73
2024/01/10 00:04:02;;;;;;;84.65;54.88;;;-4.10;99.90;;;;;;5014120;28;20030;-74
2024/01/10 00:06:28;;;;;;;91.57;60.05;;;-4.10;99.90;;;;;;5014032;28;20022;-73
2024/01/10 00:08:54;;;;;;;92.97;58.05;;;-4.20;99.90;;;;;;5012161;28;20717;-73
2024/01/10 00:11:20;;;;;;;87.28;53.88;;;-4.20;99.90;;;;;;5013050;28;20129;-73
2024/01/10 00:13:46;;;;;;;79.32;50.67;;;-4.20;99.90;;;;;;5018429;28;20351;-73
2024/01/10 00:16:15;;;;;;;121.32;63.13;;;-4.30;99.90;;;;;;5017815;28;20095;-73
2024/01/10 00:18:41;;;;;;;79.03;48.50;;;-4.30;99.90;;;;;;5021029;28;20018;-73
2024/01/10 00:21:07;;;;;;;123.40;68.32;;;-4.40;99.90;;;;;;5016616;28;20033;-73
2024/01/10 00:23:34;;;;;;;93.10;57.13;;;-4.50;99.90;;;;;;5015370;28;20038;-73
2024/01/10 00:26:00;;;;;;;95.50;60.85;;;-4.60;99.90;;;;;;5014056;28;20038;-73
2024/01/10 00:28:26;;;;;;;153.07;79.47;;;-4.80;99.90;;;;;;5016228;28;20018;-74
2024/01/10 00:30:52;;;;;;;178.15;76.35;;;-5.20;99.90;;;;;;5021444;28;20125;-73
2024/01/10 00:33:18;;;;;;;221.75;98.75;;;-5.40;99.90;;;;;;5016327;28;20022;-73
2024/01/10 00:35:44;;;;;;;209.15;100.28;;;-5.40;99.90;;;;;;5015292;28;20032;-73
2024/01/10 00:38:10;;;;;;;174.90;89.40;;;-5.30;99.90;;;;;;5013358;28;20045;-74
2024/01/10 00:40:36;;;;;;;211.48;93.15;;;-5.30;99.90;;;;;;5032183;28;20072;-73
2024/01/10 00:43:03;;;;;;;208.55;99.85;;;-5.20;99.90;;;;;;5027755;28;20073;-73
2024/01/10 00:45:29;;;;;;;225.00;102.85;;;-5.40;99.90;;;;;;5015808;28;20137;-73
2024/01/10 00:47:55;;;;;;;199.40;98.43;;;-5.50;99.90;;;;;;5013400;28;20485;-73
2024/01/10 00:50:21;;;;;;;207.93;91.43;;;-5.50;99.90;;;;;;5017816;28;20473;-73
2024/01/10 00:52:47;;;;;;;226.70;88.80;;;-5.50;99.90;;;;;;5018403;28;20080;-73
2024/01/10 00:55:13;;;;;;;188.10;83.45;;;-5.70;99.90;;;;;;5016060;28;20042;-74
2024/01/10 00:57:39;;;;;;;193.90;83.20;;;-5.80;99.90;;;;;;5027956;28;20056;-74
2024/01/10 01:00:07;;;;;;;160.63;80.40;;;-6.00;99.90;;;;;;5028751;28;20026;-73
2024/01/10 01:02:33;;;;;;;200.48;79.47;;;-6.00;99.90;;;;;;5015649;28;20532;-73
2024/01/10 01:04:59;;;;;;;191.43;75.47;;;-6.00;99.90;;;;;;5017433;28;20029;-74
2024/01/10 01:07:26;;;;;;;156.80;76.70;;;-6.00;99.90;;;;;;5017182;28;20040;-74
2024/01/10 01:09:52;;;;;;;158.57;72.45;;;-5.90;99.90;;;;;;5015108;28;20412;-73
2024/01/10 01:12:18;;;;;;;188.30;74.53;;;-5.90;99.90;;;;;;5012310;28;20071;-73
2024/01/10 01:14:44;;;;;;;169.25;78.40;;;-5.80;99.90;;;;;;5014235;28;20034;-73
2024/01/10 01:17:10;;;;;;;198.45;77.82;;;-5.70;99.90;;;;;;5017284;28;20060;-73
2024/01/10 01:19:36;;;;;;;172.75;74.53;;;-5.70;99.90;;;;;;5017977;28;20033;-73
2024/01/10 01:22:02;;;;;;;168.38;73.43;;;-5.70;99.90;;;;;;5013780;28;20088;-73
2024/01/10 01:24:28;;;;;;;157.40;73.07;;;-5.80;99.90;;;;;;5012617;28;20108;-74
2024/01/10 01:26:53;;;;;;;193.32;78.80;;;-5.80;99.90;;;;;;5015743;28;20144;-73
2024/01/10 01:29:20;;;;;;;214.00;84.25;;;-5.90;99.90;;;;;;5032381;28;20041;-73
2024/01/10 01:31:46;;;;;;;191.65;78.53;;;-5.90;99.90;;;;;;5014846;28;20044;-73
2024/01/10 01:34:12;;;;;;;171.35;77.13;;;-5.90;99.90;;;;;;5015311;28;20030;-73
2024/01/10 01:36:38;;;;;;;178.05;78.40;;;-5.70;99.90;;;;;;5013067;28;20183;-73
2024/01/10 01:39:04;;;;;;;158.57;80.13;;;-5.70;99.90;;;;;;5014884;28;20434;-73
2024/01/10 01:41:30;;;;;;;196.48;84.95;;;-5.80;99.90;;;;;;5031575;28;20131;-73
2024/01/10 01:43:56;;;;;;;161.93;77.20;;;-6.00;99.90;;;;;;5017293;28;20022;-73
2024/01/10 01:46:22;;;;;;;169.52;81.75;;;-6.00;99.90;;;;;;5013968;28;20052;-73
2024/01/10 01:48:49;;;;;;;176.40;86.75;;;-6.10;99.90;;;;;;5014323;28;20128;-72
2024/01/10 01:51:17;;;;;;;155.48;78.90;;;-6.10;99.90;;;;;;5015005;28;20069;-73
2024/01/10 01:53:45;;;;;;;168.90;76.72;;;-6.10;99.90;;;;;;5016385;28;20065;-73
2024/01/10 01:56:12;;;;;;;169.57;87.75;;;-6.00;99.90;;;;;;5011883;28;20026;-73
2024/01/10 01:58:39;;;;;;;221.65;94.60;;;-5.90;99.90;;;;;;5013483;28;20040;-73
2024/01/10 02:01:05;;;;;;;164.25;76.85;;;-5.90;99.90;;;;;;5014942;28;20022;-73
2024/01/10 02:03:32;;;;;;;146.07;71.63;;;-5.90;99.90;;;;;;5018281;28;20032;-73
2024/01/10 02:10:01;;;;;;;162.70;71.35;;;-6.00;99.90;;;;;;5217547;23;20240;-75
2024/01/10 02:12:27;;;;;;;135.85;65.85;;;-5.90;99.90;;;;;;4973843;28;20047;-75
2024/01/10 02:14:53;;;;;;;195.82;79.22;;;-5.90;99.90;;;;;;4973989;28;20031;-75
2024/01/10 02:17:19;;;;;;;180.13;77.50;;;-6.10;99.90;;;;;;4974004;28;20031;-74
2024/01/10 02:19:45;;;;;;;176.45;82.75;;;-6.10;99.90;;;;;;4956147;28;20019;-73
2024/01/10 02:22:11;;;;;;;185.70;79.40;;;-6.10;99.90;;;;;;4973618;28;20092;-75
2024/01/10 02:24:37;;;;;;;160.88;77.57;;;-6.10;99.90;;;;;;4973617;28;20497;-75
2024/01/10 02:27:03;;;;;;;177.75;81.55;;;-6.10;99.90;;;;;;4973678;28;20023;-75
2024/01/10 02:29:30;;;;;;;175.80;82.82;;;-6.10;99.90;;;;;;4973170;28;20019;-75
2024/01/10 02:31:56;;;;;;;167.95;86.72;;;-6.00;99.90;;;;;;4973977;28;20026;-75
2024/01/10 02:34:22;;;;;;;210.45;86.88;;;-6.00;99.90;;;;;;4973344;28;20034;-75
2024/01/10 02:36:48;;;;;;;174.60;82.63;;;-6.10;99.90;;;;;;4973240;28;20545;-75
2024/01/10 02:39:13;;;;;;;184.35;85.82;;;-6.20;99.90;;;;;;4947098;28;20042;-75
2024/01/10 02:41:39;;;;;;;164.80;85.57;;;-6.20;99.90;;;;;;4979703;28;20362;-75
2024/01/10 02:44:05;;;;;;;236.48;98.30;;;-6.20;99.90;;;;;;4968478;28;20038;-75
2024/01/10 02:46:31;;;;;;;176.93;84.88;;;-6.20;99.90;;;;;;4954323;28;20030;-75
2024/01/10 02:48:57;;;;;;;175.13;88.03;;;-6.20;99.90;;;;;;4972232;28;20027;-75
2024/01/10 02:51:26;;;;;;;177.52;86.25;;;-6.20;99.90;;;;;;4973099;28;20493;-75
2024/01/10 02:53:52;;;;;;;185.85;85.20;;;-6.30;99.90;;;;;;4973325;28;20023;-75
2024/01/10 02:56:18;;;;;;;173.30;85.13;;;-6.50;99.90;;;;;;4969104;28;20494;-74
2024/01/10 02:58:44;;;;;;;150.02;78.05;;;-6.60;99.90;;;;;;4955129;28;20051;-75
2024/01/10 03:01:10;;;;;;;166.95;84.20;;;-6.40;99.90;;;;;;4967323;28;20037;-75
2024/01/10 03:03:36;;;;;;;160.30;83.93;;;-6.30;99.90;;;;;;4973215;28;20489;-75
2024/01/10 03:06:02;;;;;;;162.35;85.38;;;-6.40;99.90;;;;;;4965861;28;20159;-75
2024/01/10 03:08:28;;;;;;;141.70;75.22;;;-6.50;99.90;;;;;;4973046;28;20023;-74
2024/01/10 03:10:54;;;;;;;134.80;70.30;;;-6.40;99.90;;;;;;4988329;28;20054;-75
2024/01/10 03:13:19;;;;;;;148.38;77.90;;;-6.40;99.90;;;;;;4974943;28;20038;-75
2024/01/10 03:15:45;;;;;;;169.90;81.55;;;-6.30;99.90;;;;;;4974664;28;20046;-75
2024/01/10 03:18:11;;;;;;;172.13;90.15;;;-6.20;99.90;;;;;;4992172;28;20382;-74
2024/01/10 03:20:37;;;;;;;282.98;107.05;;;-6.30;99.90;;;;;;4992523;28;20038;-75
2024/01/10 03:23:03;;;;;;;197.68;95.50;;;-6.60;99.90;;;;;;4992323;28;20034;-75
2024/01/10 03:25:29;;;;;;;271.95;100.40;;;-6.50;99.90;;;;;;4992609;28;20053;-75
2024/01/10 03:27:55;;;;;;;308.08;115.38;;;-6.40;99.90;;;;;;4992224;28;20022;-75
2024/01/10 03:30:24;;;;;;;238.40;94.47;;;-6.40;99.90;;;;;;4992594;28;20438;-74
2024/01/10 03:32:50;;;;;;;246.63;95.05;;;-6.40;99.90;;;;;;4992140;28;20042;-75
2024/01/10 03:35:15;;;;;;;218.60;99.47;;;-6.20;99.90;;;;;;4991948;28;20229;-74
2024/01/10 03:37:41;;;;;;;223.75;97.05;;;-6.10;99.90;;;;;;4992314;28;20359;-74
2024/01/10 03:40:08;;;;;;;228.88;100.22;;;-6.00;99.90;;;;;;4992105;28;20070;-74
2024/01/10 03:42:34;;;;;;;220.75;100.95;;;-6.00;99.90;;;;;;4992110;28;20089;-75
2024/01/10 03:44:59;;;;;;;208.50;101.88;;;-6.00;99.90;;;;;;4968821;28;20039;-74
2024/01/10 03:47:25;;;;;;;217.70;99.97;;;-5.90;99.90;;;;;;4984154;28;20433;-74
2024/01/10 03:49:51;;;;;;;206.43;98.38;;;-5.90;99.90;;;;;;4994937;28;20026;-74
2024/01/10 03:52:19;;;;;;;262.02;107.72;;;-5.80;99.90;;;;;;4996010;28;20041;-75
2024/01/10 03:54:44;;;;;;;208.07;103.35;;;-5.80;99.90;;;;;;4995341;28;20018;-74
2024/01/10 03:57:10;;;;;;;259.63;113.90;;;-5.70;99.90;;;;;;4995914;28;20030;-74
2024/01/10 03:59:36;;;;;;;297.02;120.75;;;-5.80;99.90;;;;;;4995562;28;20494;-74
2024/01/10 04:02:02;;;;;;;239.65;107.10;;;-5.90;99.90;;;;;;4978445;28;20034;-74
2024/01/10 04:04:28;;;;;;;234.60;106.50;;;-5.80;99.90;;;;;;4977750;28;20049;-74
2024/01/10 04:06:54;;;;;;;218.32;103.35;;;-5.80;99.90;;;;;;4995884;28;20034;-74
2024/01/10 04:09:19;;;;;;;259.17;103.25;;;-5.90;99.90;;;;;;4994199;28;20117;-74
2024/01/10 04:11:46;;;;;;;216.30;95.53;;;-5.80;99.90;;;;;;4995144;28;20050;-74
2024/01/10 04:14:12;;;;;;;235.13;102.72;;;-5.70;99.90;;;;;;4995213;28;20101;-74
2024/01/10 04:16:38;;;;;;;284.48;104.20;;;-5.60;99.90;;;;;;4995125;28;20034;-75
2024/01/10 04:19:04;;;;;;;229.52;100.30;;;-5.50;99.90;;;;;;4995350;28;20376;-75
2024/01/10 04:21:30;;;;;;;264.00;99.93;;;-5.50;99.90;;;;;;4995027;28;20489;-75
2024/01/10 04:23:56;;;;;;;250.85;102.20;;;-5.50;99.90;;;;;;4995415;28;20106;-74
2024/01/10 04:26:21;;;;;;;244.48;105.50;;;-5.50;99.90;;;;;;4994870;28;20513;-75
2024/01/10 04:28:50;;;;;;;235.52;100.78;;;-5.40;99.90;;;;;;4995412;28;20026;-75
2024/01/10 04:31:16;;;;;;;244.65;105.90;;;-5.40;99.90;;;;;;4994882;28;20026;-75
2024/01/10 04:33:42;;;;;;;202.32;96.35;;;-5.40;99.90;;;;;;4995122;28;20105;-74
2024/01/10 04:36:08;;;;;;;186.68;88.65;;;-5.50;99.90;;;;;;4975549;28;20023;-74
2024/01/10 04:38:34;;;;;;;205.98;92.68;;;-5.30;99.90;;;;;;4975780;28;20493;-75
2024/01/10 04:41:00;;;;;;;229.90;98.40;;;-5.20;99.90;;;;;;4994768;28;20037;-75
2024/01/10 04:43:26;;;;;;;228.00;98.50;;;-5.20;99.90;;;;;;4994661;28;20019;-75
2024/01/10 04:45:52;;;;;;;193.48;93.30;;;-5.30;99.90;;;;;;4982891;28;20037;-75
2024/01/10 04:48:17;;;;;;;246.43;98.35;;;-5.20;99.90;;;;;;4993408;28;20023;-75
2024/01/10 04:50:43;;;;;;;201.95;96.88;;;-5.10;99.90;;;;;;4986378;28;20530;-74
2024/01/10 04:53:09;;;;;;;198.77;97.70;;;-5.00;99.90;;;;;;4963477;28;20114;-76
2024/01/10 04:55:35;;;;;;;176.77;85.75;;;-5.00;99.90;;;;;;4983760;28;20034;-76
2024/01/10 04:58:01;;;;;;;250.65;100.28;;;-4.90;99.90;;;;;;4976499;28;20038;-74
2024/01/10 05:00:27;;;;;;;171.65;82.50;;;-4.90;99.90;;;;;;4972168;28;20043;-75
2024/01/10 05:02:53;;;;;;;220.85;96.07;;;-4.90;99.90;;;;;;4989376;28;20208;-75
2024/01/10 05:05:23;;;;;;;488.38;97.53;;;-4.80;99.90;;;;;;4976281;28;20518;-74
2024/01/10 05:07:50;;;;;;;257.70;78.80;;;-4.90;99.90;;;;;;4994146;28;20030;-75
2024/01/10 05:10:16;;;;;;;347.25;83.40;;;-5.00;99.90;;;;;;4994100;28;20145;-75
2024/01/10 05:12:42;;;;;;;371.05;84.20;;;-4.90;99.90;;;;;;4994336;28;20574;-77
2024/01/10 05:15:08;;;;;;;415.10;93.63;;;-5.00;99.90;;;;;;4993711;28;20080;-75
2024/01/10 05:17:34;;;;;;;399.30;89.15;;;-5.10;99.90;;;;;;4986903;28;20113;-74
2024/01/10 05:20:01;;;;;;;337.85;84.78;;;-5.20;99.90;;;;;;4990083;28;20093;-75
2024/01/10 05:22:27;;;;;;;256.95;71.93;;;-5.10;99.90;;;;;;4994394;28;20105;-76
2024/01/10 05:24:52;;;;;;;328.35;76.80;;;-5.10;99.90;;;;;;4993867;28;20109;-75
2024/01/10 05:27:18;;;;;;;337.27;66.80;;;-5.40;99.90;;;;;;4994033;28;20458;-74
2024/01/10 05:29:46;;;;;;;427.58;69.25;;;-5.50;99.90;;;;;;4994021;28;20085;-75
2024/01/10 05:32:11;;;;;;;454.48;78.88;;;-5.70;99.90;;;;;;4993951;28;20493;-75
2024/01/10 05:34:37;;;;;;;438.60;66.15;;;-6.00;99.90;;;;;;4994459;28;20470;-75
2024/01/10 05:37:04;;;;;;;435.85;71.68;;;-5.90;99.90;;;;;;4976262;28;20026;-75
2024/01/10 05:39:30;;;;;;;316.00;64.93;;;-6.10;99.90;;;;;;4993780;28;20117;-75
2024/01/10 05:41:55;;;;;;;199.85;54.65;;;-6.10;99.90;;;;;;4993938;28;20122;-75
2024/01/10 05:44:21;;;;;;;468.60;71.05;;;-5.90;99.90;;;;;;4993905;28;20030;-75
2024/01/10 05:46:47;;;;;;;158.10;54.17;;;-6.10;99.90;;;;;;4976321;28;20031;-74
2024/01/10 05:49:13;;;;;;;144.40;64.93;;;-5.90;99.90;;;;;;4993849;28;20265;-75
2024/01/10 05:51:39;;;;;;;111.88;51.47;;;-5.80;99.90;;;;;;4993856;28;20018;-75
2024/01/10 05:54:05;;;;;;;198.40;57.30;;;-5.80;99.90;;;;;;4975635;28;20034;-75
2024/01/10 05:56:31;;;;;;;209.68;66.13;;;-5.80;99.90;;;;;;4993733;28;20050;-75
2024/01/10 05:58:56;;;;;;;140.57;55.55;;;-5.90;99.90;;;;;;4993485;28;20108;-75
2024/01/10 06:01:22;;;;;;;145.13;60.65;;;-5.90;99.90;;;;;;4993262;28;20047;-75
2024/01/10 06:03:48;;;;;;;95.68;49.72;;;-5.80;99.90;;;;;;4993430;28;20026;-75
2024/01/10 06:06:14;;;;;;;138.75;52.78;;;-5.70;99.90;;;;;;4993422;28;20042;-74
2024/01/10 06:08:40;;;;;;;193.32;62.35;;;-5.70;99.90;;;;;;4975743;28;20489;-75
2024/01/10 06:11:08;;;;;;;98.72;51.92;;;-5.80;99.90;;;;;;4974846;28;20042;-75
2024/01/10 06:13:36;;;;;;;169.50;59.63;;;-5.90;99.90;;;;;;4993409;28;20059;-74
2024/01/10 06:16:03;;;;;;;132.20;55.50;;;-5.70;99.90;;;;;;4993586;28;20022;-74
2024/01/10 06:18:29;;;;;;;137.55;56.38;;;-5.60;99.90;;;;;;4993463;28;20030;-74
2024/01/10 06:20:55;;;;;;;126.55;54.38;;;-5.50;99.90;;;;;;4992890;28;20359;-74
2024/01/10 06:23:20;;;;;;;113.47;54.85;;;-5.40;99.90;;;;;;4990854;28;20494;-73
2024/01/10 06:25:46;;;;;;;104.55;52.88;;;-5.30;99.90;;;;;;4992569;28;20077;-74
2024/01/10 06:28:12;;;;;;;115.97;56.58;;;-5.30;99.90;;;;;;4975354;28;20030;-75
2024/01/10 06:30:39;;;;;;;152.05;64.63;;;-5.20;99.90;;;;;;4992135;28;20030;-74
2024/01/10 06:33:06;;;;;;;155.80;66.82;;;-5.10;99.90;;;;;;4991796;28;20057;-74
2024/01/10 06:35:32;;;;;;;151.70;69.95;;;-5.10;99.90;;;;;;4993016;28;20022;-74
2024/01/10 06:37:58;;;;;;;141.65;69.07;;;-5.10;99.90;;;;;;4992204;28;20038;-75
2024/01/10 06:40:24;;;;;;;162.85;75.32;;;-5.00;99.90;;;;;;4992608;28;20855;-74
2024/01/10 06:42:50;;;;;;;190.85;83.20;;;-5.10;99.90;;;;;;4992855;28;20058;-75
2024/01/10 06:45:16;;;;;;;233.13;100.53;;;-5.10;99.90;;;;;;4992653;28;20022;-75
2024/01/10 06:47:42;;;;;;;227.90;105.78;;;-5.20;99.90;;;;;;4992160;28;20033;-74
2024/01/10 06:50:08;;;;;;;257.92;104.35;;;-5.30;99.90;;;;;;4975002;28;20018;-74
2024/01/10 06:52:34;;;;;;;225.20;94.65;;;-5.50;99.90;;;;;;4992535;28;20157;-75
2024/01/10 06:55:00;;;;;;;218.35;89.43;;;-5.50;99.90;;;;;;4992799;28;20062;-74
2024/01/10 06:57:26;;;;;;;189.73;89.40;;;-5.50;99.90;;;;;;4992381;28;20454;-74
2024/01/10 06:59:52;;;;;;;226.90;96.25;;;-5.50;99.90;;;;;;4992341;28;20123;-74
2024/01/10 07:02:18;;;;;;;191.25;91.85;;;-5.50;99.90;;;;;;4992256;28;20406;-74
2024/01/10 07:04:47;;;;;;;202.60;92.75;;;-5.70;99.90;;;;;;4992602;28;20032;-75
2024/01/10 07:07:14;;;;;;;195.93;92.07;;;-5.80;99.90;;;;;;4992417;28;20490;-75
2024/01/10 07:09:40;;;;;;;191.88;83.85;;;-6.00;99.90;;;;;;4991993;28;20494;-75
2024/01/10 07:12:07;;;;;;;176.02;87.40;;;-6.10;99.90;;;;;;4992296;28;20030;-74
2024/01/10 07:14:33;;;;;;;184.60;88.43;;;-6.10;99.90;;;;;;4992416;28;20498;-74
2024/01/10 07:16:59;;;;;;;188.82;87.07;;;-6.00;99.90;;;;;;4992499;28;20050;-74
2024/01/10 07:19:25;;;;;;;212.23;98.28;;;-5.90;99.90;;;;;;4975044;28;20105;-74
2024/01/10 07:21:54;;;;;;;238.13;105.22;;;-5.70;99.90;;;;;;4991856;28;20447;-74
2024/01/10 07:24:19;;;;;;;232.15;93.50;;;-5.60;99.90;;;;;;4996151;28;20045;-74
2024/01/10 07:26:45;;;;;;;209.05;99.97;;;-5.40;99.90;;;;;;4996257;28;20529;-75
2024/01/10 07:29:11;;;;;;;207.73;101.18;;;-5.30;99.90;;;;;;4996538;28;20034;-75
2024/01/10 07:31:37;;;;;;;208.45;97.90;;;-5.20;99.90;;;;;;4978894;28;20030;-74
2024/01/10 07:34:06;;;;;;;200.35;93.45;;;-5.00;99.90;;;;;;4995964;28;20041;-74
2024/01/10 07:36:42;;;;;;;200.73;95.95;;;-4.90;99.90;;;;;;4996250;28;20085;-74
2024/01/10 07:39:08;;;;;;;184.25;93.60;;;-4.90;99.90;;;;;;4996012;28;20034;-74
2024/01/10 07:41:34;;;;;;;205.98;95.88;;;-4.90;99.90;;;;;;4995595;28;20370;-73
2024/01/10 07:44:00;;;;;;;195.68;96.47;;;-4.80;99.90;;;;;;4996640;28;20435;-74
2024/01/10 07:46:27;;;;;;;193.95;93.38;;;-4.70;99.90;;;;;;4995790;28;20057;-74
2024/01/10 07:48:53;;;;;;;198.10;97.88;;;-4.60;99.90;;;;;;4996173;28;20030;-74
2024/01/10 07:51:19;;;;;;;183.65;94.28;;;-4.50;99.90;;;;;;4995063;28;20523;-75
2024/01/10 07:53:45;;;;;;;179.82;91.88;;;-4.50;99.90;;;;;;4995746;28;20106;-74
2024/01/10 07:56:12;;;;;;;195.63;94.82;;;-4.40;99.90;;;;;;4994405;28;20112;-74
2024/01/10 07:58:38;;;;;;;192.85;95.85;;;-4.50;99.90;;;;;;4995641;28;20018;-74
2024/01/10 08:01:04;;;;;;;208.07;97.55;;;-4.60;99.90;;;;;;4995807;28;20497;-74
2024/01/10 08:03:30;;;;;;;207.18;102.25;;;-4.70;99.90;;;;;;4995741;28;20433;-74
2024/01/10 08:05:56;;;;;;;213.43;104.70;;;-4.60;99.90;;;;;;4995607;28;20034;-74
2024/01/10 08:08:22;;;;;;;143.38;85.90;;;-4.30;99.90;;;;;;4994875;28;20093;-74
2024/01/10 08:10:48;;;;;;;221.82;112.20;;;-4.20;99.90;;;;;;4995239;28;20122;-74
2024/01/10 08:13:14;;;;;;;150.63;94.20;;;-4.00;99.90;;;;;;4995625;28;20026;-74
2024/01/10 08:15:41;;;;;;;150.85;94.07;;;-3.70;99.90;;;;;;4995460;28;20044;-74
2024/01/10 08:18:07;;;;;;;178.90;107.70;;;-3.50;99.90;;;;;;4994982;28;20034;-74
2024/01/10 08:20:33;;;;;;;165.50;108.20;;;-3.40;99.90;;;;;;4995227;28;20298;-75
2024/01/10 08:22:59;;;;;;;172.10;99.88;;;-3.30;99.90;;;;;;4995695;28;20094;-74
2024/01/10 08:25:25;;;;;;;209.60;131.55;;;-3.20;99.90;;;;;;4995046;28;20034;-74
2024/01/10 08:27:53;;;;;;;201.13;123.75;;;-2.90;99.90;;;;;;4995129;28;20488;-74
2024/01/10 08:30:21;;;;;;;181.75;118.10;;;-2.80;99.90;;;;;;4992461;28;20041;-74
2024/01/10 08:32:47;;;;;;;159.35;105.65;;;-2.60;99.90;;;;;;4995140;28;20110;-74
2024/01/10 08:35:13;;;;;;;147.48;96.80;;;-2.60;99.90;;;;;;4993821;28;20030;-74
2024/01/10 08:37:42;;;;;;;156.18;98.38;;;-2.40;99.90;;;;;;4995123;28;20029;-74
2024/01/10 08:40:11;;;;;;;155.32;103.55;;;-2.20;99.90;;;;;;4994590;28;20134;-74
2024/01/10 08:42:38;;;;;;;148.32;95.45;;;-2.30;99.90;;;;;;4994524;28;20486;-74
2024/01/10 08:45:05;;;;;;;136.70;90.95;;;-2.20;99.90;;;;;;4994957;28;20105;-72
2024/01/10 08:47:32;;;;;;;142.75;87.18;;;-2.10;99.90;;;;;;4994759;28;20022;-73
2024/01/10 08:49:58;;;;;;;147.68;92.38;;;-2.30;99.90;;;;;;4994901;28;20477;-75
2024/01/10 08:52:24;;;;;;;148.25;92.57;;;-2.40;99.90;;;;;;4994752;28;20083;-75
2024/01/10 08:54:50;;;;;;;139.73;89.90;;;-2.30;99.90;;;;;;4992988;28;20406;-75
2024/01/10 08:57:17;;;;;;;146.07;91.65;;;-2.50;99.90;;;;;;4994675;28;20084;-75
2024/01/10 08:59:43;;;;;;;140.27;92.10;;;-2.80;99.90;;;;;;4994642;28;20034;-75
2024/01/10 09:02:09;;;;;;;154.65;94.93;;;-2.70;99.90;;;;;;4994349;28;20033;-75
2024/01/10 09:04:35;;;;;;;153.73;95.50;;;-2.70;99.90;;;;;;4994428;28;20156;-74
2024/01/10 09:07:01;;;;;;;155.85;90.07;;;-2.60;99.90;;;;;;4994011;28;20101;-74
2024/01/10 09:09:27;;;;;;;143.85;88.20;;;-2.60;99.90;;;;;;4992726;28;20413;-74
2024/01/10 09:11:53;;;;;;;111.30;67.65;;;-2.90;99.90;;;;;;4994446;28;20106;-74
2024/01/10 09:14:19;;;;;;;137.93;85.70;;;-2.80;99.90;;;;;;4993869;28;20026;-74
2024/01/10 09:16:45;;;;;;;134.73;79.00;;;-2.70;99.90;;;;;;4994482;28;20112;-75
2024/01/10 09:19:11;;;;;;;126.45;77.45;;;-2.80;99.90;;;;;;4993641;28;20491;-74
2024/01/10 09:21:37;;;;;;;137.60;80.78;;;-2.80;99.90;;;;;;4994424;28;20045;-74
2024/01/10 09:24:08;;;;;;;130.20;80.70;;;-3.00;99.90;;;;;;4993922;28;20393;-74
2024/01/10 09:26:34;;;;;;;150.85;88.05;;;-2.70;99.90;;;;;;4994280;28;20034;-74
2024/01/10 09:28:59;;;;;;;134.38;85.78;;;-2.50;99.90;;;;;;4987211;28;20019;-74
2024/01/10 09:31:25;;;;;;;141.02;85.53;;;-2.40;99.90;;;;;;4994040;28;20026;-74
2024/01/10 09:33:51;;;;;;;134.45;78.00;;;-2.20;99.90;;;;;;4976250;28;20470;-74
2024/01/10 09:36:21;;;;;;;135.63;77.00;;;-2.00;99.90;;;;;;4993820;28;20442;-73
2024/01/10 09:38:47;;;;;;;140.75;83.45;;;-2.10;99.90;;;;;;4993872;28;20037;-74
2024/01/10 09:41:15;;;;;;;116.97;75.43;;;-2.10;99.90;;;;;;4993641;28;20034;-74
2024/01/10 09:43:41;;;;;;;123.18;72.78;;;-2.00;99.90;;;;;;4990427;28;20441;-73
2024/01/10 09:46:08;;;;;;;123.10;75.00;;;-2.00;99.90;;;;;;4985598;28;20058;-73
2024/01/10 09:48:34;;;;;;;118.65;70.47;;;-1.80;99.90;;;;;;4994015;28;20113;-74
2024/01/10 09:51:00;;;;;;;117.55;70.82;;;-2.10;99.90;;;;;;4993252;28;20458;-74
2024/01/10 09:53:27;;;;;;;115.10;66.65;;;-1.80;99.90;;;;;;4984866;28;20026;-74
2024/01/10 09:55:56;;;;;;;117.75;69.95;;;-1.90;99.90;;;;;;4978528;28;20030;-73
2024/01/10 09:58:26;;;;;;;116.53;68.90;;;-1.90;99.90;;;;;;4977706;28;20062;-74
2024/01/10 10:00:52;;;;;;;113.60;64.93;;;-1.80;99.90;;;;;;4985668;28;20085;-73
2024/01/10 10:03:19;;;;;;;112.38;65.95;;;-1.60;99.90;;;;;;4981419;28;20080;-74
2024/01/10 10:05:45;;;;;;;111.50;63.80;;;-1.30;99.90;;;;;;4993335;28;20544;-73
2024/01/10 10:08:14;;;;;;;115.13;65.57;;;-1.10;99.90;;;;;;4975158;28;20392;-73
2024/01/10 10:10:44;;;;;;;124.10;70.55;;;-1.10;99.90;;;;;;4993308;28;20516;-73
2024/01/10 10:13:23;;;;;;;135.38;78.68;;;-1.10;99.90;;;;;;4993071;28;20018;-74
2024/01/10 10:16:00;;;;;;;123.53;68.97;;;-1.70;99.90;;;;;;4989611;28;20748;-74
2024/01/10 10:18:27;;;;;;;113.10;64.63;;;-1.50;99.90;;;;;;4985419;28;20026;-74
2024/01/10 10:21:13;;;;;;;120.63;67.30;;;-1.40;99.90;;;;;;4984810;28;20112;-74
2024/01/10 10:23:41;;;;;;;113.75;62.95;;;-1.50;99.90;;;;;;4987590;28;20441;-74
2024/01/10 10:26:20;;;;;;;101.63;58.00;;;-1.70;99.90;;;;;;4986512;28;20085;-74
2024/01/10 10:28:47;;;;;;;112.07;61.08;;;-1.80;99.90;;;;;;4978606;28;20486;-74
2024/01/10 10:31:15;;;;;;;112.90;64.55;;;-1.90;99.90;;;;;;4993056;28;20028;-74
2024/01/10 10:33:41;;;;;;;120.93;69.80;;;-2.00;99.90;;;;;;4985468;28;20038;-74
2024/01/10 10:36:08;;;;;;;124.13;79.85;;;-2.00;99.90;;;;;;4992737;28;20026;-74
2024/01/10 10:38:34;;;;;;;129.75;74.78;;;-2.10;99.90;;;;;;4986728;28;20435;-73
2024/01/10 10:41:00;;;;;;;141.10;81.50;;;-2.20;99.90;;;;;;4980202;28;20497;-74
2024/01/10 10:43:28;;;;;;;163.55;97.82;;;-2.40;99.90;;;;;;4977593;28;20070;-74
2024/01/10 10:45:56;;;;;;;159.25;96.45;;;-2.60;99.90;;;;;;4978921;28;20057;-74
2024/01/10 10:48:22;;;;;;;182.45;107.60;;;-2.60;99.90;;;;;;4976055;28;20078;-74
2024/01/10 10:51:03;;;;;;;195.88;113.43;;;-2.60;99.90;;;;;;4976718;28;20446;-74
2024/01/10 10:53:31;;;;;;;181.07;105.75;;;-2.30;99.90;;;;;;4975548;28;20023;-74
2024/01/10 10:55:59;;;;;;;172.73;105.93;;;-2.60;99.90;;;;;;4991577;28;20050;-73
2024/01/10 10:58:25;;;;;;;160.07;97.55;;;-2.40;99.90;;;;;;4991730;28;20466;-74
2024/01/10 11:00:52;;;;;;;157.02;88.35;;;-2.30;99.90;;;;;;4992443;28;20088;-75
2024/01/10 11:03:19;;;;;;;163.98;93.50;;;-2.20;99.90;;;;;;4991883;28;20500;-74
2024/01/10 11:05:46;;;;;;;173.60;102.53;;;-2.30;99.90;;;;;;4974866;28;20129;-74
2024/01/10 11:08:16;;;;;;;157.00;92.35;;;-2.40;99.90;;;;;;4992447;28;20061;-74
2024/01/10 11:10:44;;;;;;;138.07;88.03;;;-2.50;99.90;;;;;;4992233;28;20104;-74
2024/01/10 11:13:21;;;;;;;144.88;85.10;;;-2.40;99.90;;;;;;4992740;28;20058;-73
2024/01/10 11:16:15;;;;;;;129.63;78.15;;;-2.50;99.90;;;;;;4992293;28;20161;-74
2024/01/10 11:19:05;;;;;;;111.03;65.10;;;-2.60;99.90;;;;;;4992531;28;20031;-74
2024/01/10 11:21:53;;;;;;;107.45;61.88;;;-2.60;99.90;;;;;;4992638;28;20089;-74
2024/01/10 11:24:20;;;;;;;103.55;64.38;;;-2.70;99.90;;;;;;4980609;28;20023;-74
2024/01/10 11:26:46;;;;;;;111.32;66.78;;;-2.80;99.90;;;;;;4974967;28;20477;-74
2024/01/10 11:29:12;;;;;;;123.60;72.72;;;-2.50;99.90;;;;;;4992635;28;20029;-74
2024/01/10 11:31:39;;;;;;;130.55;75.68;;;-2.50;99.90;;;;;;4991950;28;20034;-74
2024/01/10 11:34:05;;;;;;;108.35;66.55;;;-2.50;99.90;;;;;;4992458;28;20026;-74
2024/01/10 11:36:31;;;;;;;107.75;64.57;;;-2.50;99.90;;;;;;4992089;28;20065;-74
2024/01/10 11:39:04;;;;;;;109.60;66.90;;;-2.60;99.90;;;;;;4992243;28;20034;-74
2024/01/10 11:41:32;;;;;;;115.75;69.53;;;-2.50;99.90;;;;;;4992126;28;20038;-74
2024/01/10 11:44:10;;;;;;;121.00;72.93;;;-2.60;99.90;;;;;;4992197;28;20023;-74
2024/01/10 11:46:38;;;;;;;122.88;74.18;;;-2.60;99.90;;;;;;4991979;28;20080;-74
2024/01/10 11:49:11;;;;;;;117.05;70.40;;;-2.70;99.90;;;;;;4992142;28;20022;-74
2024/01/10 11:51:37;;;;;;;;;;;-2.70;99.90;;;;;;4992365;28;20034;-74
2024/01/10 11:54:04;;;;;;;138.68;80.22;;;-2.90;99.90;;;;;;4992281;28;19912;-74
2024/01/10 11:56:40;;;;;;;122.10;73.47;;;-2.80;99.90;;;;;;4992400;28;20054;-74
2024/01/10 11:59:11;;;;;;;122.97;72.20;;;-2.90;99.90;;;;;;4991957;28;20028;-74
2024/01/10 12:01:38;;;;;;;106.57;68.22;;;-2.70;99.90;;;;;;4991888;28;20066;-74
2024/01/10 12:04:04;;;;;;;117.18;73.60;;;-2.70;99.90;;;;;;4992142;28;20030;-74
2024/01/10 12:06:39;;;;;;;104.93;66.88;;;-2.80;99.90;;;;;;4992162;28;20382;-74
2024/01/10 12:09:08;;;;;;;102.45;65.53;;;-2.70;99.90;;;;;;4991738;28;20030;-74
2024/01/10 12:11:44;;;;;;;110.03;64.45;;;-2.70;99.90;;;;;;4995731;28;20034;-74
2024/01/10 12:14:10;;;;;;;102.20;62.65;;;-2.90;99.90;;;;;;4995248;28;20488;-74
2024/01/10 12:16:36;;;;;;;109.20;63.25;;;-2.90;99.90;;;;;;4996017;28;20359;-74
2024/01/10 12:19:02;;;;;;;109.10;61.35;;;-2.90;99.90;;;;;;4995304;28;20022;-74